createdAt,value
2022-11-24T00:00:36.462Z,12.57
2022-11-24T00:05:39.754Z,12.57
2022-11-24T00:10:43.091Z,12.56
2022-11-24T00:15:47.809Z,12.54
2022-11-24T00:20:54.128Z,12.54
2022-11-24T00:25:57.451Z,12.50
2022-11-24T00:31:02.523Z,12.55
2022-11-24T00:36:06.367Z,12.60
2022-11-24T00:41:10.054Z,12.61
2022-11-24T00:46:14.950Z,12.57
2022-11-24T00:51:19.459Z,12.58
2022-11-24T00:56:22.758Z,12.63
2022-11-24T01:01:29.180Z,12.65
2022-11-24T01:06:35.374Z,12.64
2022-11-24T01:11:52.453Z,12.63
2022-11-24T01:16:57.572Z,12.61
2022-11-24T01:22:00.894Z,12.64
2022-11-24T01:27:04.218Z,12.63
2022-11-24T01:32:08.970Z,12.66
2022-11-24T01:37:12.327Z,12.67
2022-11-24T01:42:15.637Z,12.66
2022-11-24T01:47:34.802Z,12.64
2022-11-24T01:52:42.358Z,12.67
2022-11-24T01:57:48.727Z,12.68
2022-11-24T02:02:54.554Z,12.65
2022-11-24T02:08:01.797Z,12.63
2022-11-24T02:13:05.919Z,12.60
2022-11-24T02:18:10.783Z,12.55
2022-11-24T02:23:22.322Z,12.56
2022-11-24T02:28:30.668Z,12.55
2022-11-24T02:33:35.638Z,12.49
2022-11-24T02:38:38.602Z,12.45
2022-11-24T02:43:47.898Z,12.47
2022-11-24T02:48:51.237Z,12.47
2022-11-24T02:53:54.552Z,12.50
2022-11-24T02:58:59.282Z,12.52
2022-11-24T03:04:02.565Z,12.53
2022-11-24T03:09:06.239Z,12.52
2022-11-24T03:14:11.076Z,12.49
2022-11-24T03:19:14.576Z,12.45
2022-11-24T03:24:17.853Z,12.41
2022-11-24T03:29:23.355Z,12.39
2022-11-24T03:34:26.650Z,12.35
2022-11-24T03:39:29.980Z,12.32
2022-11-24T03:44:34.905Z,12.33
2022-11-24T03:49:38.349Z,12.38
2022-11-24T03:54:42.483Z,12.42
2022-11-24T03:59:47.450Z,12.43
2022-11-24T04:04:52.659Z,12.40
2022-11-24T04:09:55.942Z,12.43
2022-11-24T04:15:00.506Z,12.46
2022-11-24T04:20:03.802Z,12.47
2022-11-24T04:25:08.715Z,12.43
2022-11-24T04:30:13.601Z,12.37
2022-11-24T04:35:16.839Z,12.35
2022-11-24T04:40:20.450Z,12.31
2022-11-24T04:45:25.288Z,12.29
2022-11-24T04:50:28.511Z,12.29
2022-11-24T04:55:31.686Z,12.30
2022-11-24T05:00:36.220Z,12.23
2022-11-24T05:05:39.366Z,12.20
2022-11-24T05:10:43.155Z,12.19
2022-11-24T05:15:47.736Z,12.21
2022-11-24T05:20:50.896Z,12.18
2022-11-24T05:25:54.515Z,12.20
2022-11-24T05:31:01.945Z,12.23
2022-11-24T05:36:07.482Z,12.25
2022-11-24T05:41:10.637Z,12.19
2022-11-24T05:46:15.278Z,12.20
2022-11-24T05:51:18.643Z,12.17
2022-11-24T05:56:21.800Z,12.16
2022-11-24T06:01:26.394Z,12.18
2022-11-24T06:06:29.562Z,12.21
2022-11-24T06:11:32.801Z,12.20
2022-11-24T06:16:37.719Z,12.17
2022-11-24T06:21:40.649Z,12.10
2022-11-24T06:26:43.887Z,12.16
2022-11-24T06:31:48.498Z,12.16
2022-11-24T06:36:51.666Z,12.15
2022-11-24T06:41:55.024Z,12.17
2022-11-24T06:46:59.582Z,12.16
2022-11-24T06:52:02.758Z,12.20
2022-11-24T06:57:05.918Z,12.24
2022-11-24T07:02:11.733Z,12.20
2022-11-24T07:07:14.933Z,12.16
2022-11-24T07:12:18.272Z,12.17
2022-11-24T07:17:22.857Z,12.14
2022-11-24T07:22:26.001Z,12.13
2022-11-24T07:27:30.342Z,12.15
2022-11-24T07:32:34.930Z,12.10
2022-11-24T07:37:38.058Z,12.08
2022-11-24T07:42:41.222Z,12.08
2022-11-24T07:47:45.815Z,12.07
2022-11-24T07:52:48.992Z,12.06
2022-11-24T07:57:52.125Z,12.05
2022-11-24T08:02:56.739Z,12.04
2022-11-24T08:08:01.443Z,12.04
2022-11-24T08:13:04.646Z,12.06
2022-11-24T08:18:10.489Z,12.11
2022-11-24T08:23:13.647Z,12.11
2022-11-24T08:28:16.906Z,12.09
2022-11-24T08:33:21.450Z,12.07
2022-11-24T08:38:24.603Z,12.10
2022-11-24T08:43:27.746Z,12.12
2022-11-24T08:48:32.475Z,12.16
2022-11-24T08:53:35.754Z,12.18
2022-11-24T08:58:39.680Z,12.19
2022-11-24T09:03:50.425Z,12.20
2022-11-24T09:08:55.833Z,12.36
2022-11-24T09:13:59.070Z,12.48
2022-11-24T09:19:06.444Z,12.57
2022-11-24T09:24:09.782Z,12.67
2022-11-24T09:29:13.795Z,12.74
2022-11-24T09:34:19.412Z,12.80
2022-11-24T09:39:22.817Z,12.88
2022-11-24T09:44:47.035Z,12.99
2022-11-24T09:49:59.176Z,13.00
2022-11-24T09:55:04.233Z,13.04
2022-11-24T10:00:14.167Z,13.07
2022-11-24T10:05:19.446Z,13.19
2022-11-24T10:10:27.099Z,13.27
2022-11-24T10:15:42.864Z,13.34
2022-11-24T10:20:59.351Z,13.43
2022-11-24T10:26:06.235Z,13.48
2022-11-24T10:31:24.810Z,13.50
2022-11-24T10:36:39.583Z,13.55
2022-11-24T10:41:50.077Z,13.59
2022-11-24T10:46:53.420Z,13.59
2022-11-24T10:52:07.952Z,13.52
2022-11-24T10:57:27.719Z,13.49
2022-11-24T11:02:35.064Z,13.44
2022-11-24T11:07:39.777Z,13.50
2022-11-24T11:12:44.680Z,13.59
2022-11-24T11:17:50.452Z,13.63
2022-11-24T11:22:56.498Z,13.68
2022-11-24T11:28:25.319Z,13.66
2022-11-24T11:38:54.695Z,13.87
2022-11-24T11:44:08.752Z,13.94
2022-11-24T11:49:14.063Z,14.09
2022-11-24T11:54:35.813Z,14.24
2022-11-24T11:59:59.188Z,14.32
2022-11-24T12:05:05.301Z,14.43
2022-11-24T12:10:22.985Z,14.47
2022-11-24T12:15:35.083Z,14.35
2022-11-24T12:20:51.416Z,14.22
2022-11-24T12:26:00.533Z,14.09
2022-11-24T12:31:07.948Z,13.94
2022-11-24T12:36:18.316Z,13.82
2022-11-24T12:41:42.644Z,13.80
2022-11-24T12:46:58.082Z,13.85
2022-11-24T12:52:08.031Z,13.88
2022-11-24T12:57:19.272Z,13.89
2022-11-24T13:02:31.318Z,13.93
2022-11-24T13:07:45.253Z,13.92
2022-11-24T13:12:59.145Z,13.87
2022-11-24T13:18:11.869Z,13.75
2022-11-24T13:23:25.719Z,13.75
2022-11-24T13:29:13.046Z,13.69
2022-11-24T13:34:55.853Z,13.70
2022-11-24T13:40:00.779Z,13.71
2022-11-24T13:45:07.508Z,13.80
2022-11-24T13:50:16.523Z,13.84
2022-11-24T13:55:40.332Z,13.79
2022-11-24T14:01:02.867Z,13.82
2022-11-24T14:06:06.370Z,13.83
2022-11-24T14:11:16.339Z,13.87
2022-11-24T14:16:22.520Z,13.87
2022-11-24T14:21:29.026Z,13.85
2022-11-24T14:26:35.832Z,13.85
2022-11-24T14:31:40.580Z,13.88
2022-11-24T14:36:43.883Z,14.01
2022-11-24T14:41:53.777Z,14.15
2022-11-24T14:47:08.862Z,14.25
2022-11-24T14:52:15.214Z,14.33
2022-11-24T14:57:27.907Z,14.23
2022-11-24T15:02:45.715Z,14.14
2022-11-24T15:07:50.695Z,14.11
2022-11-24T15:12:56.972Z,14.15
2022-11-24T15:18:02.973Z,14.28
2022-11-24T15:23:25.284Z,14.29
2022-11-24T15:28:28.747Z,14.22
2022-11-24T15:33:33.819Z,14.15
2022-11-24T15:38:36.950Z,14.13
2022-11-24T15:43:41.650Z,14.25
2022-11-24T15:48:46.299Z,14.27
2022-11-24T15:53:55.785Z,14.14
2022-11-24T15:59:03.950Z,13.98
2022-11-24T16:04:08.534Z,13.97
2022-11-24T16:09:16.886Z,13.96
2022-11-24T16:14:20.235Z,13.91
2022-11-24T16:19:24.871Z,13.90
2022-11-24T16:24:27.996Z,14.04
2022-11-24T16:29:36.897Z,14.09
2022-11-24T16:34:42.833Z,14.12
2022-11-24T16:39:50.017Z,14.10
2022-11-24T16:44:53.540Z,14.03
2022-11-24T16:49:58.126Z,13.98
2022-11-24T16:55:01.832Z,13.87
2022-11-24T17:00:05.911Z,13.71
2022-11-24T17:05:11.065Z,13.59
2022-11-24T17:10:14.259Z,13.55
2022-11-24T17:15:32.581Z,13.46
2022-11-24T17:20:37.478Z,13.41
2022-11-24T17:25:40.609Z,13.37
2022-11-24T17:30:43.873Z,13.34
2022-11-24T17:35:48.430Z,13.28
2022-11-24T17:40:52.407Z,13.28
2022-11-24T17:45:56.607Z,13.31
2022-11-24T17:51:02.245Z,13.30
2022-11-24T17:56:05.783Z,13.29
2022-11-24T18:01:09.329Z,13.24
2022-11-24T18:06:15.172Z,13.21
2022-11-24T18:11:20.078Z,13.19
2022-11-24T18:16:23.022Z,13.13
2022-11-24T18:21:27.784Z,13.10
2022-11-24T18:26:30.946Z,13.02
2022-11-24T18:31:35.608Z,12.94
2022-11-24T18:36:40.155Z,12.82
2022-11-24T18:41:44.651Z,12.83
2022-11-24T18:46:47.806Z,12.82
2022-11-24T18:51:52.825Z,12.82
2022-11-24T18:57:01.750Z,12.78
2022-11-24T19:02:06.483Z,12.78
2022-11-24T19:07:11.112Z,12.78
2022-11-24T19:12:14.461Z,12.67
2022-11-24T19:17:18.142Z,12.64
2022-11-24T19:22:22.767Z,12.70
2022-11-24T19:27:25.900Z,12.72
2022-11-24T19:32:29.042Z,12.67
2022-11-24T19:37:33.646Z,12.61
2022-11-24T19:42:36.939Z,12.62
2022-11-24T19:47:40.083Z,12.64
2022-11-24T19:52:44.666Z,12.67
2022-11-24T19:57:47.797Z,12.68
2022-11-24T20:02:51.755Z,12.65
2022-11-24T20:07:56.426Z,12.61
2022-11-24T20:12:59.629Z,12.52
2022-11-24T20:18:03.063Z,12.47
2022-11-24T20:23:07.600Z,12.40
2022-11-24T20:28:11.800Z,12.30
2022-11-24T20:33:14.948Z,12.30
2022-11-24T20:38:19.543Z,12.14
2022-11-24T20:43:22.705Z,12.23
2022-11-24T20:48:25.855Z,12.24
2022-11-24T20:53:30.419Z,12.30
2022-11-24T20:58:33.961Z,12.36
2022-11-24T21:03:43.076Z,12.43
2022-11-24T21:08:48.214Z,12.48
2022-11-24T21:13:52.188Z,12.48
2022-11-24T21:18:59.340Z,12.43
2022-11-24T21:24:04.796Z,12.47
2022-11-24T21:29:08.927Z,12.49
2022-11-24T21:34:16.486Z,12.51
2022-11-24T21:39:21.116Z,12.53
2022-11-24T21:44:25.862Z,12.53
2022-11-24T21:49:29.731Z,12.52
2022-11-24T21:54:34.490Z,12.58
2022-11-24T21:59:37.567Z,12.56
2022-11-24T22:04:40.854Z,12.65
2022-11-24T22:09:46.914Z,12.71
2022-11-24T22:14:50.229Z,12.75
2022-11-24T22:19:53.395Z,12.78
2022-11-24T22:24:58.039Z,12.79
2022-11-24T22:30:02.799Z,12.82
2022-11-24T22:35:07.145Z,12.83
2022-11-24T22:40:12.677Z,12.83
2022-11-24T22:45:15.985Z,12.82
2022-11-24T22:50:19.308Z,12.84
2022-11-24T22:55:24.037Z,12.85
2022-11-24T23:00:27.304Z,12.84
2022-11-24T23:05:30.497Z,12.87
2022-11-24T23:10:35.421Z,12.86
2022-11-24T23:15:38.539Z,12.78
2022-11-24T23:20:42.028Z,12.77
2022-11-24T23:25:46.912Z,12.70
2022-11-24T23:30:50.063Z,12.76
2022-11-24T23:35:53.533Z,12.80
2022-11-24T23:40:58.528Z,12.82
2022-11-24T23:46:06.032Z,12.80
2022-11-24T23:51:13.078Z,12.78
2022-11-24T23:56:19.997Z,12.78
